createdAt,value
2022-10-13T00:02:32.125Z,18.40
2022-10-13T00:06:33.970Z,18.10
2022-10-13T00:10:38.406Z,19.00
2022-10-13T00:14:41.733Z,18.30
2022-10-13T00:18:45.286Z,18.90
2022-10-13T00:22:47.163Z,20.60
2022-10-13T00:26:50.175Z,22.30
2022-10-13T00:30:53.996Z,18.90
2022-10-13T00:34:57.236Z,19.60
2022-10-13T00:38:59.120Z,19.60
2022-10-13T00:43:01.016Z,18.70
2022-10-13T00:47:02.979Z,17.70
2022-10-13T00:51:07.423Z,17.60
2022-10-13T00:55:13.188Z,17.60
2022-10-13T00:59:23.721Z,16.80
2022-10-13T01:03:28.329Z,19.10
2022-10-13T01:07:31.217Z,16.50
2022-10-13T01:11:46.329Z,17.20
2022-10-13T01:15:57.612Z,18.20
2022-10-13T01:19:59.371Z,17.20
2022-10-13T01:24:32.430Z,17.00
2022-10-13T01:28:52.847Z,18.70
2022-10-13T01:33:16.045Z,16.40
2022-10-13T01:38:00.333Z,17.30
2022-10-13T01:42:12.875Z,18.20
2022-10-13T01:46:34.617Z,17.20
2022-10-13T01:50:38.348Z,16.70
2022-10-13T01:54:40.406Z,15.10
2022-10-13T01:58:42.809Z,16.10
2022-10-13T02:02:48.173Z,15.70
2022-10-13T02:07:09.386Z,15.40
2022-10-13T02:11:17.049Z,14.20
2022-10-13T02:15:23.132Z,15.90
2022-10-13T02:19:25.613Z,14.10
2022-10-13T02:23:28.441Z,17.90
2022-10-13T02:27:30.372Z,13.90
2022-10-13T02:31:32.293Z,15.40
2022-10-13T02:35:34.466Z,13.40
2022-10-13T02:39:37.082Z,14.70
2022-10-13T02:43:39.042Z,13.50
2022-10-13T02:47:40.984Z,15.00
2022-10-13T02:51:42.775Z,14.90
2022-10-13T02:55:44.637Z,16.20
2022-10-13T02:59:46.494Z,15.00
2022-10-13T03:03:48.382Z,14.60
2022-10-13T03:07:50.212Z,15.10
2022-10-13T03:11:52.040Z,15.20
2022-10-13T03:15:53.899Z,14.10
2022-10-13T03:19:55.798Z,13.50
2022-10-13T03:23:57.672Z,13.70
2022-10-13T03:28:00.856Z,14.60
2022-10-13T03:32:03.006Z,14.60
2022-10-13T03:36:05.628Z,11.80
2022-10-13T03:40:08.416Z,13.50
2022-10-13T03:44:15.302Z,13.80
2022-10-13T03:48:17.199Z,13.80
2022-10-13T03:52:19.221Z,12.70
2022-10-13T03:56:24.701Z,13.00
2022-10-13T04:00:26.956Z,13.40
2022-10-13T04:04:28.749Z,12.30
2022-10-13T04:08:32.768Z,13.20
2022-10-13T04:12:34.825Z,13.40
2022-10-13T04:16:39.209Z,14.30
2022-10-13T04:20:41.576Z,13.40
2022-10-13T04:24:43.576Z,13.30
2022-10-13T04:28:47.468Z,15.50
2022-10-13T04:32:49.340Z,15.10
2022-10-13T04:36:52.761Z,16.00
2022-10-13T04:40:54.548Z,15.10
2022-10-13T04:44:56.446Z,15.20
2022-10-13T04:48:59.340Z,13.20
2022-10-13T04:53:07.106Z,16.60
2022-10-13T04:57:08.932Z,13.60
2022-10-13T05:01:17.669Z,13.90
2022-10-13T05:05:23.141Z,13.10
2022-10-13T05:09:25.233Z,14.80
2022-10-13T05:13:29.164Z,16.60
2022-10-13T05:17:35.258Z,16.70
2022-10-13T05:21:42.587Z,17.80
2022-10-13T05:25:44.679Z,15.80
2022-10-13T05:29:47.869Z,14.00
2022-10-13T05:33:51.652Z,14.60
2022-10-13T05:37:57.322Z,15.90
2022-10-13T05:41:59.171Z,14.00
2022-10-13T05:46:01.632Z,15.30
2022-10-13T05:50:04.936Z,16.80
2022-10-13T05:54:12.920Z,16.70
2022-10-13T05:58:15.293Z,16.30
2022-10-13T06:02:21.692Z,16.50
2022-10-13T06:06:27.915Z,16.70
2022-10-13T06:10:33.191Z,22.10
2022-10-13T06:14:35.578Z,20.20
2022-10-13T06:18:41.073Z,17.10
2022-10-13T06:22:43.009Z,17.50
2022-10-13T06:26:44.914Z,19.20
2022-10-13T06:30:53.063Z,16.20
2022-10-13T06:34:55.871Z,17.00
2022-10-13T06:38:57.741Z,17.90
2022-10-13T06:42:59.917Z,17.70
2022-10-13T06:47:03.281Z,17.70
2022-10-13T06:51:10.176Z,19.20
2022-10-13T06:55:12.185Z,19.10
2022-10-13T06:59:14.156Z,19.90
2022-10-13T07:03:20.045Z,18.80
2022-10-13T07:07:22.084Z,18.50
2022-10-13T07:11:24.649Z,18.00
2022-10-13T07:15:29.700Z,19.40
2022-10-13T07:19:31.655Z,19.30
2022-10-13T07:23:33.641Z,18.70
2022-10-13T07:27:37.621Z,18.00
2022-10-13T07:31:41.846Z,18.80
2022-10-13T07:35:43.727Z,20.50
2022-10-13T07:39:45.542Z,20.30
2022-10-13T07:43:47.614Z,19.60
2022-10-13T07:47:49.696Z,19.30
2022-10-13T07:51:51.988Z,19.50
2022-10-13T07:55:55.093Z,17.80
2022-10-13T07:59:57.182Z,18.50
2022-10-13T08:03:59.065Z,17.90
2022-10-13T08:08:00.949Z,16.60
2022-10-13T08:12:03.442Z,14.80
2022-10-13T08:16:05.537Z,13.80
2022-10-13T08:20:07.881Z,16.60
2022-10-13T08:24:13.401Z,14.70
2022-10-13T08:28:17.468Z,10.90
2022-10-13T08:32:20.886Z,10.50
2022-10-13T08:36:23.484Z,10.50
2022-10-13T08:40:25.631Z,6.90
2022-10-13T08:45:10.789Z,6.80
2022-10-13T08:49:05.465Z,6.90
2022-10-13T08:53:16.111Z,6.00
2022-10-13T08:57:21.994Z,6.70
2022-10-13T09:01:36.106Z,8.30
2022-10-13T09:05:49.615Z,6.90
2022-10-13T09:09:53.050Z,6.40
2022-10-13T09:13:57.512Z,8.60
2022-10-13T09:18:12.641Z,6.50
2022-10-13T09:22:38.742Z,6.00
2022-10-13T09:26:41.855Z,5.10
2022-10-13T09:30:46.643Z,6.00
2022-10-13T09:34:49.285Z,5.70
2022-10-13T09:39:14.192Z,4.40
2022-10-13T09:43:31.762Z,5.00
2022-10-13T09:47:34.138Z,5.50
2022-10-13T09:51:40.469Z,4.90
2022-10-13T09:56:23.251Z,4.90
2022-10-13T10:00:27.537Z,5.30
2022-10-13T10:04:37.374Z,4.50
2022-10-13T10:09:02.664Z,4.90
2022-10-13T10:13:12.535Z,4.10
2022-10-13T10:17:26.520Z,4.20
2022-10-13T10:21:43.149Z,3.60
2022-10-13T10:25:58.805Z,3.40
2022-10-13T10:30:12.604Z,3.50
2022-10-13T10:34:32.523Z,4.00
2022-10-13T10:38:42.312Z,5.70
2022-10-13T10:42:52.353Z,4.80
2022-10-13T10:47:02.439Z,5.80
2022-10-13T10:51:09.736Z,6.10
2022-10-13T10:55:26.151Z,5.40
2022-10-13T10:59:41.219Z,5.00
2022-10-13T11:03:47.179Z,4.00
2022-10-13T11:07:51.913Z,4.20
2022-10-13T11:11:53.901Z,5.30
2022-10-13T11:15:56.088Z,4.50
2022-10-13T11:19:58.982Z,5.20
2022-10-13T11:24:02.255Z,5.90
2022-10-13T11:28:22.661Z,5.20
2022-10-13T11:32:30.272Z,5.40
2022-10-13T11:36:38.959Z,5.90
2022-10-13T11:40:56.435Z,5.90
2022-10-13T11:45:03.838Z,5.00
2022-10-13T11:49:07.451Z,5.60
2022-10-13T11:53:23.924Z,5.60
2022-10-13T11:57:27.780Z,4.30
2022-10-13T12:01:29.787Z,4.50
2022-10-13T12:05:32.361Z,3.30
2022-10-13T12:09:39.402Z,3.50
2022-10-13T12:13:46.184Z,4.20
2022-10-13T12:17:50.180Z,2.80
2022-10-13T12:21:55.202Z,3.50
2022-10-13T12:25:58.414Z,4.20
2022-10-13T12:30:01.761Z,3.60
2022-10-13T12:34:04.363Z,3.30
2022-10-13T12:38:18.972Z,3.70
2022-10-13T12:42:29.098Z,5.60
2022-10-13T12:46:42.553Z,3.90
2022-10-13T12:50:44.491Z,3.80
2022-10-13T12:54:55.737Z,3.00
2022-10-13T12:58:59.200Z,4.00
2022-10-13T13:03:04.067Z,4.00
2022-10-13T13:07:36.598Z,4.60
2022-10-13T13:11:39.237Z,4.20
2022-10-13T13:15:44.212Z,4.00
2022-10-13T13:19:55.214Z,3.80
2022-10-13T13:23:57.067Z,4.30
2022-10-13T13:27:58.932Z,4.40
2022-10-13T13:32:00.747Z,4.00
2022-10-13T13:36:02.595Z,4.20
2022-10-13T13:40:06.317Z,3.80
2022-10-13T13:44:08.205Z,5.00
2022-10-13T13:48:12.575Z,5.80
2022-10-13T13:52:15.172Z,4.10
2022-10-13T13:56:18.641Z,5.10
2022-10-13T14:00:21.225Z,5.30
2022-10-13T14:04:29.564Z,4.10
2022-10-13T14:08:33.902Z,5.30
2022-10-13T14:12:37.275Z,4.50
2022-10-13T14:16:41.077Z,5.00
2022-10-13T14:20:43.377Z,4.70
2022-10-13T14:24:45.419Z,4.80
2022-10-13T14:28:47.529Z,4.00
2022-10-13T14:32:49.443Z,4.30
2022-10-13T14:36:51.418Z,4.00
2022-10-13T14:41:03.896Z,4.70
2022-10-13T14:45:06.333Z,4.40
2022-10-13T14:49:10.417Z,4.00
2022-10-13T14:53:15.996Z,4.10
2022-10-13T14:57:18.233Z,4.10
2022-10-13T15:01:20.672Z,4.90
2022-10-13T15:05:22.639Z,5.40
2022-10-13T15:09:33.493Z,4.30
2022-10-13T15:13:48.764Z,4.10
2022-10-13T15:17:50.631Z,3.90
2022-10-13T15:21:52.908Z,4.60
2022-10-13T15:25:57.993Z,4.50
2022-10-13T15:30:00.228Z,4.70
2022-10-13T15:34:02.109Z,3.70
2022-10-13T15:38:03.909Z,4.10
2022-10-13T15:42:05.784Z,3.70
2022-10-13T15:46:11.806Z,4.40
2022-10-13T15:50:14.711Z,5.70
2022-10-13T15:54:17.315Z,5.20
2022-10-13T15:58:19.193Z,4.30
2022-10-13T16:02:23.045Z,4.90
2022-10-13T16:06:26.260Z,5.20
2022-10-13T16:10:28.125Z,7.50
2022-10-13T16:14:30.106Z,8.00
2022-10-13T16:18:36.017Z,10.20
2022-10-13T16:22:38.100Z,12.90
2022-10-13T16:26:40.397Z,12.00
2022-10-13T16:30:42.765Z,11.90
2022-10-13T16:34:47.455Z,10.00
2022-10-13T16:38:54.446Z,12.90
2022-10-13T16:42:56.227Z,8.30
2022-10-13T16:47:00.112Z,7.10
2022-10-13T16:51:11.850Z,9.60
2022-10-13T16:55:15.246Z,9.30
2022-10-13T16:59:17.423Z,12.40
2022-10-13T17:03:19.340Z,14.20
2022-10-13T17:07:23.219Z,16.10
2022-10-13T17:11:28.308Z,16.20
2022-10-13T17:15:30.183Z,19.20
2022-10-13T17:19:32.204Z,13.50
2022-10-13T17:23:34.444Z,11.50
2022-10-13T17:27:36.984Z,10.00
2022-10-13T17:31:38.914Z,13.50
2022-10-13T17:35:40.866Z,13.10
2022-10-13T17:39:42.933Z,14.00
2022-10-13T17:43:45.040Z,32.70
2022-10-13T17:47:48.764Z,26.40
2022-10-13T17:51:53.131Z,22.10
2022-10-13T17:56:02.762Z,19.70
2022-10-13T18:00:06.018Z,17.90
2022-10-13T18:04:17.327Z,18.90
2022-10-13T18:08:20.024Z,17.90
2022-10-13T18:12:21.907Z,21.30
2022-10-13T18:16:24.052Z,23.40
2022-10-13T18:20:26.597Z,29.70
2022-10-13T18:24:28.533Z,42.30
2022-10-13T18:28:32.278Z,38.80
2022-10-13T18:32:34.266Z,27.40
2022-10-13T18:36:38.448Z,27.70
2022-10-13T18:40:43.486Z,28.90
2022-10-13T18:44:45.541Z,24.80
2022-10-13T18:48:47.479Z,24.90
2022-10-13T18:52:49.332Z,22.50
2022-10-13T18:56:52.720Z,21.70
2022-10-13T19:00:59.860Z,22.00
2022-10-13T19:05:02.026Z,22.30
2022-10-13T19:09:07.306Z,21.00
2022-10-13T19:13:11.135Z,22.10
2022-10-13T19:17:13.213Z,21.10
2022-10-13T19:21:16.244Z,17.90
2022-10-13T19:25:18.238Z,19.20
2022-10-13T19:29:20.296Z,20.80
2022-10-13T19:33:22.209Z,19.20
2022-10-13T19:37:24.150Z,20.70
2022-10-13T19:41:28.652Z,16.10
2022-10-13T19:45:31.289Z,20.20
2022-10-13T19:49:33.194Z,17.60
2022-10-13T19:53:36.495Z,15.20
2022-10-13T19:57:38.651Z,16.20
2022-10-13T20:01:40.631Z,14.30
2022-10-13T20:05:47.404Z,14.40
2022-10-13T20:09:49.267Z,16.10
2022-10-13T20:13:52.371Z,14.30
2022-10-13T20:17:54.231Z,14.30
2022-10-13T20:21:56.095Z,14.90
2022-10-13T20:26:06.460Z,14.60
2022-10-13T20:30:10.177Z,13.40
2022-10-13T20:34:12.140Z,13.40
2022-10-13T20:38:14.321Z,17.80
2022-10-13T20:42:16.232Z,19.20
2022-10-13T20:46:21.162Z,19.30
2022-10-13T20:50:23.014Z,18.90
2022-10-13T20:54:24.973Z,18.40
2022-10-13T20:58:30.371Z,16.90
2022-10-13T21:02:32.909Z,16.30
2022-10-13T21:06:36.010Z,17.10
2022-10-13T21:10:37.979Z,16.20
2022-10-13T21:14:40.163Z,15.70
2022-10-13T21:18:51.346Z,14.00
2022-10-13T21:22:54.313Z,14.30
2022-10-13T21:26:56.234Z,13.70
2022-10-13T21:31:00.129Z,12.70
2022-10-13T21:35:02.282Z,12.20
2022-10-13T21:39:05.615Z,13.50
2022-10-13T21:43:08.037Z,12.60
2022-10-13T21:47:09.919Z,12.20
2022-10-13T21:51:15.312Z,12.80
2022-10-13T21:55:17.168Z,12.10
2022-10-13T21:59:19.958Z,15.10
2022-10-13T22:03:21.792Z,15.10
2022-10-13T22:07:23.721Z,14.10
2022-10-13T22:11:28.685Z,12.70
2022-10-13T22:15:33.992Z,13.70
2022-10-13T22:19:36.489Z,13.40
2022-10-13T22:23:38.434Z,12.30
2022-10-13T22:27:40.277Z,12.80
2022-10-13T22:31:42.344Z,15.00
2022-10-13T22:35:46.297Z,12.60
2022-10-13T22:39:49.077Z,12.40
2022-10-13T22:43:55.945Z,12.40
2022-10-13T22:47:57.955Z,11.90
2022-10-13T22:51:59.785Z,12.30
2022-10-13T22:56:05.680Z,12.60
2022-10-13T23:00:09.770Z,12.90
2022-10-13T23:04:13.585Z,11.50
2022-10-13T23:08:15.555Z,13.20
2022-10-13T23:12:17.956Z,12.00
2022-10-13T23:16:23.105Z,14.30
2022-10-13T23:20:25.079Z,12.20
2022-10-13T23:24:27.094Z,11.10
2022-10-13T23:28:30.129Z,11.70
2022-10-13T23:32:32.252Z,13.40
2022-10-13T23:36:34.203Z,12.40
2022-10-13T23:40:36.312Z,14.50
2022-10-13T23:44:38.690Z,14.00
2022-10-13T23:48:41.097Z,14.80
2022-10-13T23:52:43.001Z,14.40
2022-10-13T23:56:44.863Z,13.50
